sensor_id;sensor_type;location;lat;lon;timestamp;pressure;altitude;pressure_sealevel;temperature;humidity
64336;BME280;50672;53.362;-6.240;2023-03-31T00:00:59;98547.88;;;12.02;75.71
64336;BME280;50672;53.362;-6.240;2023-03-31T00:03:26;98549.53;;;12.03;75.85
64336;BME280;50672;53.362;-6.240;2023-03-31T00:05:55;98552.28;;;12.03;75.62
64336;BME280;50672;53.362;-6.240;2023-03-31T00:08:25;98549.44;;;11.98;75.73
64336;BME280;50672;53.362;-6.240;2023-03-31T00:10:59;98549.91;;;11.95;76.16
64336;BME280;50672;53.362;-6.240;2023-03-31T00:13:26;98538.19;;;11.94;76.34
64336;BME280;50672;53.362;-6.240;2023-03-31T00:16:01;98532.50;;;11.96;76.30
64336;BME280;50672;53.362;-6.240;2023-03-31T00:18:29;98522.25;;;11.91;76.48
64336;BME280;50672;53.362;-6.240;2023-03-31T00:21:14;98527.28;;;11.94;76.49
64336;BME280;50672;53.362;-6.240;2023-03-31T00:23:53;98524.56;;;11.94;76.57
64336;BME280;50672;53.362;-6.240;2023-03-31T00:26:21;98525.59;;;11.93;76.74
64336;BME280;50672;53.362;-6.240;2023-03-31T00:28:49;98524.97;;;11.91;76.49
64336;BME280;50672;53.362;-6.240;2023-03-31T00:31:16;98511.84;;;11.88;76.58
64336;BME280;50672;53.362;-6.240;2023-03-31T00:33:43;98511.84;;;11.88;76.89
64336;BME280;50672;53.362;-6.240;2023-03-31T00:36:11;98505.81;;;11.86;77.07
64336;BME280;50672;53.362;-6.240;2023-03-31T00:38:38;98511.00;;;11.88;76.90
64336;BME280;50672;53.362;-6.240;2023-03-31T00:41:05;98508.16;;;11.83;77.06
64336;BME280;50672;53.362;-6.240;2023-03-31T00:43:36;98501.19;;;11.75;76.99
64336;BME280;50672;53.362;-6.240;2023-03-31T00:46:19;98503.69;;;11.76;77.08
64336;BME280;50672;53.362;-6.240;2023-03-31T00:48:54;98501.19;;;11.75;77.15
64336;BME280;50672;53.362;-6.240;2023-03-31T00:51:25;98504.13;;;11.73;77.38
64336;BME280;50672;53.362;-6.240;2023-03-31T00:53:57;98488.28;;;11.70;77.62
64336;BME280;50672;53.362;-6.240;2023-03-31T00:56:33;98500.03;;;11.71;77.49
64336;BME280;50672;53.362;-6.240;2023-03-31T00:59:02;98510.06;;;11.70;77.82
64336;BME280;50672;53.362;-6.240;2023-03-31T01:01:30;98501.31;;;11.68;77.84
64336;BME280;50672;53.362;-6.240;2023-03-31T01:03:57;98489.47;;;11.62;77.73
64336;BME280;50672;53.362;-6.240;2023-03-31T01:06:24;98492.31;;;11.68;77.64
64336;BME280;50672;53.362;-6.240;2023-03-31T01:08:52;98497.75;;;11.68;77.79
64336;BME280;50672;53.362;-6.240;2023-03-31T01:11:20;98490.31;;;11.63;77.78
64336;BME280;50672;53.362;-6.240;2023-03-31T01:13:50;98481.88;;;11.65;78.03
64336;BME280;50672;53.362;-6.240;2023-03-31T01:16:18;98479.16;;;11.65;77.94
64336;BME280;50672;53.362;-6.240;2023-03-31T01:18:45;98471.59;;;11.67;78.07
64336;BME280;50672;53.362;-6.240;2023-03-31T01:48:16;98448.38;;;11.52;78.49
64336;BME280;50672;53.362;-6.240;2023-03-31T01:50:44;98448.59;;;11.51;78.71
64336;BME280;50672;53.362;-6.240;2023-03-31T01:53:24;98447.78;;;11.50;78.53
64336;BME280;50672;53.362;-6.240;2023-03-31T01:56:14;98451.34;;;11.51;78.73
64336;BME280;50672;53.362;-6.240;2023-03-31T01:58:54;98452.50;;;11.55;78.69
64336;BME280;50672;53.362;-6.240;2023-03-31T02:04:18;98453.00;;;11.52;78.88
64336;BME280;50672;53.362;-6.240;2023-03-31T02:06:51;98444.00;;;11.51;78.80
64336;BME280;50672;53.362;-6.240;2023-03-31T02:09:25;98442.91;;;11.52;78.96
64336;BME280;50672;53.362;-6.240;2023-03-31T02:11:55;98440.69;;;11.49;78.66
64336;BME280;50672;53.362;-6.240;2023-03-31T02:14:27;98444.00;;;11.51;78.67
64336;BME280;50672;53.362;-6.240;2023-03-31T02:16:57;98443.41;;;11.49;78.81
64336;BME280;50672;53.362;-6.240;2023-03-31T02:19:35;98438.44;;;11.46;79.02
64336;BME280;50672;53.362;-6.240;2023-03-31T02:22:06;98443.41;;;11.49;79.15
64336;BME280;50672;53.362;-6.240;2023-03-31T02:24:35;98436.28;;;11.48;78.90
64336;BME280;50672;53.362;-6.240;2023-03-31T02:27:26;98436.53;;;11.46;79.21
64336;BME280;50672;53.362;-6.240;2023-03-31T02:29:54;98441.50;;;11.50;78.99
64336;BME280;50672;53.362;-6.240;2023-03-31T02:32:35;98442.59;;;11.49;79.17
64336;BME280;50672;53.362;-6.240;2023-03-31T02:35:05;98435.84;;;11.51;79.14
64336;BME280;50672;53.362;-6.240;2023-03-31T02:37:33;98439.38;;;11.52;79.36
64336;BME280;50672;53.362;-6.240;2023-03-31T02:40:22;98439.63;;;11.50;79.16
64336;BME280;50672;53.362;-6.240;2023-03-31T02:42:53;98431.94;;;11.47;79.29
64336;BME280;50672;53.362;-6.240;2023-03-31T02:45:42;98435.47;;;11.48;79.57
64336;BME280;50672;53.362;-6.240;2023-03-31T02:48:14;98437.94;;;11.49;79.50
64336;BME280;50672;53.362;-6.240;2023-03-31T03:07:15;98433.47;;;11.43;79.70
64336;BME280;50672;53.362;-6.240;2023-03-31T03:10:11;98430.38;;;11.39;80.04
64336;BME280;50672;53.362;-6.240;2023-03-31T03:12:52;98435.59;;;11.41;79.92
64336;BME280;50672;53.362;-6.240;2023-03-31T03:15:26;98433.09;;;11.39;80.17
64336;BME280;50672;53.362;-6.240;2023-03-31T03:17:55;98436.88;;;11.38;80.34
64336;BME280;50672;53.362;-6.240;2023-03-31T03:20:22;98428.16;;;11.36;80.25
64336;BME280;50672;53.362;-6.240;2023-03-31T03:22:49;98428.97;;;11.37;80.18
64336;BME280;50672;53.362;-6.240;2023-03-31T03:25:16;98431.69;;;11.37;80.59
64336;BME280;50672;53.362;-6.240;2023-03-31T03:27:43;98436.88;;;11.38;80.12
64336;BME280;50672;53.362;-6.240;2023-03-31T03:30:12;98435.25;;;11.37;80.44
64336;BME280;50672;53.362;-6.240;2023-03-31T03:32:39;98435.00;;;11.39;80.32
64336;BME280;50672;53.362;-6.240;2023-03-31T03:35:08;98441.53;;;11.38;80.35
64336;BME280;50672;53.362;-6.240;2023-03-31T03:37:35;98436.06;;;11.38;80.63
64336;BME280;50672;53.362;-6.240;2023-03-31T03:40:02;98437.75;;;11.39;80.64
64336;BME280;50672;53.362;-6.240;2023-03-31T03:42:32;98439.03;;;11.36;80.64
64336;BME280;50672;53.362;-6.240;2023-03-31T03:44:59;98437.63;;;11.34;80.62
64336;BME280;50672;53.362;-6.240;2023-03-31T03:47:27;98446.59;;;11.34;80.63
64336;BME280;50672;53.362;-6.240;2023-03-31T03:49:54;98443.06;;;11.34;80.56
64336;BME280;50672;53.362;-6.240;2023-03-31T03:52:21;98439.84;;;11.37;80.68
64336;BME280;50672;53.362;-6.240;2023-03-31T03:54:47;98445.31;;;11.37;80.58
64336;BME280;50672;53.362;-6.240;2023-03-31T03:57:15;98451.59;;;11.37;80.72
64336;BME280;50672;53.362;-6.240;2023-03-31T03:59:42;98447.78;;;11.38;80.93
64336;BME280;50672;53.362;-6.240;2023-03-31T04:02:08;98441.53;;;11.38;81.06
64336;BME280;50672;53.362;-6.240;2023-03-31T04:04:35;98444.47;;;11.36;80.72
64336;BME280;50672;53.362;-6.240;2023-03-31T04:07:02;98443.88;;;11.34;81.16
64336;BME280;50672;53.362;-6.240;2023-03-31T04:09:29;98451.22;;;11.34;80.66
64336;BME280;50672;53.362;-6.240;2023-03-31T04:11:56;98442.47;;;11.32;81.17
64336;BME280;50672;53.362;-6.240;2023-03-31T04:14:23;98453.81;;;11.28;81.24
64336;BME280;50672;53.362;-6.240;2023-03-31T04:16:51;98454.19;;;11.32;81.30
64336;BME280;50672;53.362;-6.240;2023-03-31T04:19:18;98464.28;;;11.32;81.13
64336;BME280;50672;53.362;-6.240;2023-03-31T04:21:47;98460.47;;;11.33;80.89
64336;BME280;50672;53.362;-6.240;2023-03-31T04:24:16;98461.31;;;11.33;81.15
64336;BME280;50672;53.362;-6.240;2023-03-31T04:26:47;98472.44;;;11.32;81.14
64336;BME280;50672;53.362;-6.240;2023-03-31T04:29:16;98471.59;;;11.31;80.91
64336;BME280;50672;53.362;-6.240;2023-03-31T04:31:45;98469.09;;;11.29;81.08
64336;BME280;50672;53.362;-6.240;2023-03-31T04:34:14;98473.50;;;11.31;80.92
64336;BME280;50672;53.362;-6.240;2023-03-31T04:36:43;98477.66;;;11.33;81.05
64336;BME280;50672;53.362;-6.240;2023-03-31T04:39:17;98482.63;;;11.36;81.17
64336;BME280;50672;53.362;-6.240;2023-03-31T04:41:53;98487.00;;;11.37;80.99
64336;BME280;50672;53.362;-6.240;2023-03-31T04:44:19;98495.75;;;11.39;81.09
64336;BME280;50672;53.362;-6.240;2023-03-31T04:46:46;98489.50;;;11.39;80.81
64336;BME280;50672;53.362;-6.240;2023-03-31T04:49:13;98492.22;;;11.39;80.80
64336;BME280;50672;53.362;-6.240;2023-03-31T04:51:40;98495.19;;;11.37;81.13
64336;BME280;50672;53.362;-6.240;2023-03-31T04:54:09;98496.25;;;11.36;81.20
64336;BME280;50672;53.362;-6.240;2023-03-31T04:56:36;98501.91;;;11.35;81.10
64336;BME280;50672;53.362;-6.240;2023-03-31T04:59:03;98503.22;;;11.32;81.10
64336;BME280;50672;53.362;-6.240;2023-03-31T05:01:30;98504.50;;;11.29;80.76
64336;BME280;50672;53.362;-6.240;2023-03-31T05:04:03;98516.22;;;11.30;81.19
64336;BME280;50672;53.362;-6.240;2023-03-31T05:06:30;98509.38;;;11.27;80.83
64336;BME280;50672;53.362;-6.240;2023-03-31T05:08:57;98518.84;;;11.25;81.00
64336;BME280;50672;53.362;-6.240;2023-03-31T05:11:23;98518.00;;;11.24;81.01
64336;BME280;50672;53.362;-6.240;2023-03-31T05:13:51;98525.13;;;11.25;81.15
64336;BME280;50672;53.362;-6.240;2023-03-31T05:16:18;98521.34;;;11.26;80.94
64336;BME280;50672;53.362;-6.240;2023-03-31T05:18:44;98528.06;;;11.24;81.19
64336;BME280;50672;53.362;-6.240;2023-03-31T05:21:14;98525.81;;;11.21;81.28
64336;BME280;50672;53.362;-6.240;2023-03-31T05:23:41;98528.41;;;11.16;80.89
64336;BME280;50672;53.362;-6.240;2023-03-31T05:26:08;98536.34;;;11.05;80.87
64336;BME280;50672;53.362;-6.240;2023-03-31T05:28:36;98538.09;;;11.00;81.02
64336;BME280;50672;53.362;-6.240;2023-03-31T05:31:05;98541.50;;;10.95;81.26
64336;BME280;50672;53.362;-6.240;2023-03-31T05:33:32;98543.88;;;10.91;81.06
64336;BME280;50672;53.362;-6.240;2023-03-31T05:35:59;98548.03;;;10.94;81.35
64336;BME280;50672;53.362;-6.240;2023-03-31T05:38:26;98552.78;;;10.99;81.17
64336;BME280;50672;53.362;-6.240;2023-03-31T05:40:57;98561.06;;;11.04;81.14
64336;BME280;50672;53.362;-6.240;2023-03-31T05:43:24;98568.16;;;11.05;81.06
64336;BME280;50672;53.362;-6.240;2023-03-31T05:45:51;98576.47;;;11.10;81.05
64336;BME280;50672;53.362;-6.240;2023-03-31T05:48:18;98575.53;;;11.16;81.42
64336;BME280;50672;53.362;-6.240;2023-03-31T05:50:45;98580.88;;;11.23;81.08
64336;BME280;50672;53.362;-6.240;2023-03-31T05:53:11;98595.09;;;11.25;81.33
64336;BME280;50672;53.362;-6.240;2023-03-31T05:55:38;98597.13;;;11.29;81.05
64336;BME280;50672;53.362;-6.240;2023-03-31T05:58:05;98604.22;;;11.31;80.91
64336;BME280;50672;53.362;-6.240;2023-03-31T06:00:35;98607.53;;;11.33;80.82
64336;BME280;50672;53.362;-6.240;2023-03-31T06:03:03;98617.97;;;11.36;81.09
64336;BME280;50672;53.362;-6.240;2023-03-31T06:05:33;98617.75;;;11.37;80.64
64336;BME280;50672;53.362;-6.240;2023-03-31T06:08:00;98617.28;;;11.40;80.94
64336;BME280;50672;53.362;-6.240;2023-03-31T06:10:28;98624.16;;;11.43;80.83
64336;BME280;50672;53.362;-6.240;2023-03-31T06:12:55;98622.00;;;11.45;80.54
64336;BME280;50672;53.362;-6.240;2023-03-31T06:15:21;98624.97;;;11.43;80.60
64336;BME280;50672;53.362;-6.240;2023-03-31T06:17:48;98634.44;;;11.41;80.47
64336;BME280;50672;53.362;-6.240;2023-03-31T06:20:16;98630.91;;;11.40;80.57
64336;BME280;50672;53.362;-6.240;2023-03-31T06:22:53;98639.75;;;11.36;80.49
64336;BME280;50672;53.362;-6.240;2023-03-31T06:25:20;98647.72;;;11.37;80.93
64336;BME280;50672;53.362;-6.240;2023-03-31T06:27:47;98651.13;;;11.33;80.59
64336;BME280;50672;53.362;-6.240;2023-03-31T06:30:14;98651.97;;;11.33;80.87
64336;BME280;50672;53.362;-6.240;2023-03-31T06:32:41;98658.38;;;11.39;80.65
64336;BME280;50672;53.362;-6.240;2023-03-31T06:35:08;98663.59;;;11.40;80.83
64336;BME280;50672;53.362;-6.240;2023-03-31T06:37:34;98672.09;;;11.44;80.61
64336;BME280;50672;53.362;-6.240;2023-03-31T06:40:01;98676.25;;;11.46;80.70
64336;BME280;50672;53.362;-6.240;2023-03-31T06:42:29;98684.81;;;11.50;80.41
64336;BME280;50672;53.362;-6.240;2023-03-31T06:44:56;98690.25;;;11.50;80.46
64336;BME280;50672;53.362;-6.240;2023-03-31T06:47:23;98687.06;;;11.53;80.51
64336;BME280;50672;53.362;-6.240;2023-03-31T06:50:10;98691.47;;;11.54;80.21
64336;BME280;50672;53.362;-6.240;2023-03-31T06:53:36;98704.00;;;11.55;80.23
64336;BME280;50672;53.362;-6.240;2023-03-31T06:57:19;98699.41;;;11.56;80.19
64336;BME280;50672;53.362;-6.240;2023-03-31T07:00:48;98712.78;;;11.57;80.34
64336;BME280;50672;53.362;-6.240;2023-03-31T07:04:14;98719.91;;;11.58;79.93
64336;BME280;50672;53.362;-6.240;2023-03-31T07:07:58;98721.91;;;11.63;80.02
64336;BME280;50672;53.362;-6.240;2023-03-31T07:11:24;98727.13;;;11.65;80.19
64336;BME280;50672;53.362;-6.240;2023-03-31T07:14:31;98737.47;;;11.62;80.34
64336;BME280;50672;53.362;-6.240;2023-03-31T07:16:58;98737.81;;;11.66;80.01
64336;BME280;50672;53.362;-6.240;2023-03-31T07:19:25;98747.19;;;11.70;80.12
64336;BME280;50672;53.362;-6.240;2023-03-31T07:21:51;98750.75;;;11.71;80.11
64336;BME280;50672;53.362;-6.240;2023-03-31T07:24:18;98755.50;;;11.75;79.86
64336;BME280;50672;53.362;-6.240;2023-03-31T07:26:45;98764.03;;;11.79;79.98
64336;BME280;50672;53.362;-6.240;2023-03-31T07:29:12;98772.34;;;11.84;80.09
64336;BME280;50672;53.362;-6.240;2023-03-31T07:31:39;98775.69;;;11.86;79.92
64336;BME280;50672;53.362;-6.240;2023-03-31T07:34:06;98768.09;;;11.88;79.89
64336;BME280;50672;53.362;-6.240;2023-03-31T07:36:33;98780.66;;;11.89;79.80
64336;BME280;50672;53.362;-6.240;2023-03-31T07:39:00;98787.78;;;11.90;80.09
64336;BME280;50672;53.362;-6.240;2023-03-31T07:41:26;98790.88;;;11.94;79.66
64336;BME280;50672;53.362;-6.240;2023-03-31T07:43:53;98792.38;;;11.90;79.75
64336;BME280;50672;53.362;-6.240;2023-03-31T07:46:23;98800.81;;;11.88;79.49
64336;BME280;50672;53.362;-6.240;2023-03-31T07:48:51;98801.63;;;11.89;79.48
64336;BME280;50672;53.362;-6.240;2023-03-31T07:51:22;98801.41;;;11.90;79.82
64336;BME280;50672;53.362;-6.240;2023-03-31T07:53:49;98807.53;;;11.86;79.74
64336;BME280;50672;53.362;-6.240;2023-03-31T07:56:20;98816.44;;;11.81;79.61
64336;BME280;50672;53.362;-6.240;2023-03-31T07:58:47;98816.81;;;11.85;79.84
64336;BME280;50672;53.362;-6.240;2023-03-31T08:01:16;98825.34;;;11.88;79.73
64336;BME280;50672;53.362;-6.240;2023-03-31T08:03:44;98832.00;;;11.92;79.63
64336;BME280;50672;53.362;-6.240;2023-03-31T08:06:17;98832.75;;;12.00;79.83
64336;BME280;50672;53.362;-6.240;2023-03-31T08:08:45;98844.72;;;11.99;79.91
64336;BME280;50672;53.362;-6.240;2023-03-31T08:11:12;98851.25;;;11.98;79.87
64336;BME280;50672;53.362;-6.240;2023-03-31T08:13:39;98852.31;;;11.96;79.52
64336;BME280;50672;53.362;-6.240;2023-03-31T08:16:06;98853.28;;;12.02;79.35
64336;BME280;50672;53.362;-6.240;2023-03-31T08:18:34;98859.13;;;12.06;79.41
64336;BME280;50672;53.362;-6.240;2023-03-31T08:21:00;98866.19;;;12.07;79.57
64336;BME280;50672;53.362;-6.240;2023-03-31T08:23:28;98867.72;;;12.03;79.88
64336;BME280;50672;53.362;-6.240;2023-03-31T08:26:10;98875.09;;;12.02;79.53
64336;BME280;50672;53.362;-6.240;2023-03-31T08:28:37;98878.53;;;11.98;79.87
64336;BME280;50672;53.362;-6.240;2023-03-31T08:31:10;98882.31;;;11.96;79.84
64336;BME280;50672;53.362;-6.240;2023-03-31T08:33:37;98879.56;;;11.96;79.49
64336;BME280;50672;53.362;-6.240;2023-03-31T08:36:05;98881.47;;;11.96;79.71
64336;BME280;50672;53.362;-6.240;2023-03-31T08:38:36;98893.22;;;11.96;79.93
64336;BME280;50672;53.362;-6.240;2023-03-31T08:41:21;98895.94;;;11.96;79.59
64336;BME280;50672;53.362;-6.240;2023-03-31T08:43:51;98903.19;;;12.03;79.67
64336;BME280;50672;53.362;-6.240;2023-03-31T08:46:19;98907.13;;;12.07;79.56
64336;BME280;50672;53.362;-6.240;2023-03-31T08:48:50;98902.44;;;12.14;79.86
64336;BME280;50672;53.362;-6.240;2023-03-31T08:53:59;98914.97;;;12.15;79.52
64336;BME280;50672;53.362;-6.240;2023-03-31T08:56:38;98908.09;;;12.12;79.62
64336;BME280;50672;53.362;-6.240;2023-03-31T08:59:28;98925.66;;;12.17;79.63
64336;BME280;50672;53.362;-6.240;2023-03-31T09:02:16;98927.31;;;12.18;79.72
64336;BME280;50672;53.362;-6.240;2023-03-31T09:07:59;98931.41;;;12.27;79.37
64336;BME280;50672;53.362;-6.240;2023-03-31T09:10:40;98936.97;;;12.32;79.35
64336;BME280;50672;53.362;-6.240;2023-03-31T09:16:13;98937.34;;;12.36;79.33
64336;BME280;50672;53.362;-6.240;2023-03-31T09:18:42;98945.69;;;12.41;79.32
64336;BME280;50672;53.362;-6.240;2023-03-31T09:21:30;98948.53;;;12.46;79.15
64336;BME280;50672;53.362;-6.240;2023-03-31T09:24:12;98944.66;;;12.54;78.99
64336;BME280;50672;53.362;-6.240;2023-03-31T09:27:02;98963.28;;;12.57;78.62
64336;BME280;50672;53.362;-6.240;2023-03-31T09:29:54;98958.53;;;12.52;78.88
64336;BME280;50672;53.362;-6.240;2023-03-31T09:32:24;98966.72;;;12.52;78.51
64336;BME280;50672;53.362;-6.240;2023-03-31T09:35:00;98970.28;;;12.53;78.83
64336;BME280;50672;53.362;-6.240;2023-03-31T09:37:30;98973.38;;;12.56;78.80
64336;BME280;50672;53.362;-6.240;2023-03-31T09:39:59;98976.94;;;12.57;78.44
64336;BME280;50672;53.362;-6.240;2023-03-31T09:42:35;98982.16;;;12.58;78.54
64336;BME280;50672;53.362;-6.240;2023-03-31T09:45:03;98991.78;;;12.61;78.51
64336;BME280;50672;53.362;-6.240;2023-03-31T09:47:35;98991.31;;;12.64;78.36
64336;BME280;50672;53.362;-6.240;2023-03-31T09:50:06;98996.44;;;12.72;78.40
64336;BME280;50672;53.362;-6.240;2023-03-31T09:52:42;99000.97;;;12.78;77.95
64336;BME280;50672;53.362;-6.240;2023-03-31T09:58:05;99007.16;;;12.86;77.67
64336;BME280;50672;53.362;-6.240;2023-03-31T10:00:33;99010.00;;;12.79;77.99
64336;BME280;50672;53.362;-6.240;2023-03-31T10:03:01;99020.53;;;12.75;77.57
64336;BME280;50672;53.362;-6.240;2023-03-31T10:05:54;99025.31;;;12.80;77.49
64336;BME280;50672;53.362;-6.240;2023-03-31T10:08:26;99026.03;;;12.87;77.50
64336;BME280;50672;53.362;-6.240;2023-03-31T10:16:23;99036.50;;;12.90;77.35
64336;BME280;50672;53.362;-6.240;2023-03-31T10:18:53;99043.00;;;12.89;77.17
64336;BME280;50672;53.362;-6.240;2023-03-31T10:21:26;99042.19;;;12.89;76.90
64336;BME280;50672;53.362;-6.240;2023-03-31T10:23:53;99059.13;;;12.79;76.79
64336;BME280;50672;53.362;-6.240;2023-03-31T10:26:24;99064.69;;;12.72;76.90
64336;BME280;50672;53.362;-6.240;2023-03-31T10:28:52;99060.50;;;12.70;76.96
64336;BME280;50672;53.362;-6.240;2023-03-31T10:31:25;99061.59;;;12.69;76.72
64336;BME280;50672;53.362;-6.240;2023-03-31T10:33:52;99064.69;;;12.72;77.06
64336;BME280;50672;53.362;-6.240;2023-03-31T10:38:47;99076.56;;;12.78;77.26
64336;BME280;50672;53.362;-6.240;2023-03-31T10:41:21;99087.38;;;12.73;76.82
64336;BME280;50672;53.362;-6.240;2023-03-31T10:43:51;99081.06;;;12.72;76.92
64336;BME280;50672;53.362;-6.240;2023-03-31T10:46:19;99085.94;;;12.70;76.84
64336;BME280;50672;53.362;-6.240;2023-03-31T10:48:46;99090.78;;;12.68;76.79
64336;BME280;50672;53.362;-6.240;2023-03-31T10:53:48;99093.50;;;12.68;77.03
64336;BME280;50672;53.362;-6.240;2023-03-31T11:04:32;99108.28;;;12.79;77.13
64336;BME280;50672;53.362;-6.240;2023-03-31T11:10:28;99125.38;;;13.05;76.68
64336;BME280;50672;53.362;-6.240;2023-03-31T11:13:25;99130.50;;;13.13;76.66
64336;BME280;50672;53.362;-6.240;2023-03-31T11:18:49;99142.03;;;13.15;76.58
64336;BME280;50672;53.362;-6.240;2023-03-31T11:27:05;99148.22;;;13.10;76.40
64336;BME280;50672;53.362;-6.240;2023-03-31T11:38:43;99170.88;;;13.11;76.07
64336;BME280;50672;53.362;-6.240;2023-03-31T11:41:18;99178.47;;;13.09;75.88
64336;BME280;50672;53.362;-6.240;2023-03-31T11:43:53;99182.88;;;13.10;75.87
64336;BME280;50672;53.362;-6.240;2023-03-31T11:46:29;99184.06;;;13.14;75.87
64336;BME280;50672;53.362;-6.240;2023-03-31T11:49:02;99189.22;;;13.22;75.60
64336;BME280;50672;53.362;-6.240;2023-03-31T11:51:43;99200.88;;;13.29;75.22
64336;BME280;50672;53.362;-6.240;2023-03-31T11:54:15;99198.84;;;13.25;75.17
64336;BME280;50672;53.362;-6.240;2023-03-31T11:56:43;99204.41;;;13.18;75.11
64336;BME280;50672;53.362;-6.240;2023-03-31T11:59:14;99209.59;;;13.08;75.40
64336;BME280;50672;53.362;-6.240;2023-03-31T12:01:56;99214.09;;;13.02;75.72
64336;BME280;50672;53.362;-6.240;2023-03-31T12:04:42;99217.72;;;12.96;75.74
64336;BME280;50672;53.362;-6.240;2023-03-31T12:07:28;99223.63;;;12.93;75.42
64336;BME280;50672;53.362;-6.240;2023-03-31T12:11:14;99230.91;;;12.99;75.99
64336;BME280;50672;53.362;-6.240;2023-03-31T12:14:42;99235.63;;;12.92;75.85
64336;BME280;50672;53.362;-6.240;2023-03-31T12:18:15;99240.50;;;12.90;75.61
64336;BME280;50672;53.362;-6.240;2023-03-31T12:21:41;99243.91;;;13.04;75.81
64336;BME280;50672;53.362;-6.240;2023-03-31T12:25:12;99251.59;;;13.25;75.58
64336;BME280;50672;53.362;-6.240;2023-03-31T12:28:19;99256.00;;;13.45;75.73
64336;BME280;50672;53.362;-6.240;2023-03-31T12:30:47;99246.31;;;13.61;75.57
64336;BME280;50672;53.362;-6.240;2023-03-31T12:33:23;99251.97;;;13.90;75.16
64336;BME280;50672;53.362;-6.240;2023-03-31T12:41:46;99259.19;;;14.85;74.16
64336;BME280;50672;53.362;-6.240;2023-03-31T12:44:37;99259.66;;;14.94;73.89
64336;BME280;50672;53.362;-6.240;2023-03-31T12:55:10;99266.81;;;15.65;72.41
64336;BME280;50672;53.362;-6.240;2023-03-31T12:57:47;99276.78;;;15.71;71.91
64336;BME280;50672;53.362;-6.240;2023-03-31T13:00:26;99278.03;;;15.63;71.82
64336;BME280;50672;53.362;-6.240;2023-03-31T13:12:25;99299.31;;;15.03;71.09
64336;BME280;50672;53.362;-6.240;2023-03-31T13:15:32;99298.13;;;14.99;71.29
64336;BME280;50672;53.362;-6.240;2023-03-31T13:18:20;99306.47;;;14.93;71.35
64336;BME280;50672;53.362;-6.240;2023-03-31T13:21:51;99310.78;;;14.77;71.20
64336;BME280;50672;53.362;-6.240;2023-03-31T13:31:36;99325.34;;;14.47;71.33
64336;BME280;50672;53.362;-6.240;2023-03-31T13:34:43;99323.56;;;14.52;71.43
64336;BME280;50672;53.362;-6.240;2023-03-31T13:37:28;99327.31;;;14.58;71.15
64336;BME280;50672;53.362;-6.240;2023-03-31T13:40:23;99337.06;;;14.54;71.57
64336;BME280;50672;53.362;-6.240;2023-03-31T13:51:48;99345.91;;;14.14;71.38
64336;BME280;50672;53.362;-6.240;2023-03-31T13:57:30;99348.69;;;14.38;71.54
64336;BME280;50672;53.362;-6.240;2023-03-31T14:11:24;99378.78;;;14.80;71.47
64336;BME280;50672;53.362;-6.240;2023-03-31T14:14:06;99385.69;;;14.82;71.60
64336;BME280;50672;53.362;-6.240;2023-03-31T14:16:39;99386.16;;;14.79;71.41
64336;BME280;50672;53.362;-6.240;2023-03-31T14:27:46;99394.19;;;14.50;71.58
64336;BME280;50672;53.362;-6.240;2023-03-31T14:35:30;99412.19;;;14.58;71.79
64336;BME280;50672;53.362;-6.240;2023-03-31T14:38:10;99405.38;;;14.61;71.79
64336;BME280;50672;53.362;-6.240;2023-03-31T14:41:01;99407.16;;;14.55;71.46
64336;BME280;50672;53.362;-6.240;2023-03-31T14:44:28;99424.28;;;14.39;71.43
64336;BME280;50672;53.362;-6.240;2023-03-31T14:47:54;99424.09;;;14.22;71.64
64336;BME280;50672;53.362;-6.240;2023-03-31T14:50:28;99432.25;;;14.10;71.57
64336;BME280;50672;53.362;-6.240;2023-03-31T14:52:57;99428.56;;;14.04;71.73
64336;BME280;50672;53.362;-6.240;2023-03-31T14:55:27;99431.97;;;13.99;71.80
64336;BME280;50672;53.362;-6.240;2023-03-31T14:58:42;99440.28;;;13.93;71.97
64336;BME280;50672;53.362;-6.240;2023-03-31T15:01:49;99439.28;;;13.87;72.35
64336;BME280;50672;53.362;-6.240;2023-03-31T15:04:40;99440.94;;;13.88;72.34
64336;BME280;50672;53.362;-6.240;2023-03-31T15:08:21;99446.28;;;13.83;72.31
64336;BME280;50672;53.362;-6.240;2023-03-31T15:11:35;99450.22;;;13.87;72.64
64336;BME280;50672;53.362;-6.240;2023-03-31T15:15:03;99459.19;;;13.94;72.65
64336;BME280;50672;53.362;-6.240;2023-03-31T15:18:28;99458.91;;;14.14;72.76
64336;BME280;50672;53.362;-6.240;2023-03-31T15:21:37;99464.72;;;14.36;72.94
64336;BME280;50672;53.362;-6.240;2023-03-31T15:24:04;99473.09;;;14.42;72.57
64336;BME280;50672;53.362;-6.240;2023-03-31T15:26:35;99464.72;;;14.36;72.95
64336;BME280;50672;53.362;-6.240;2023-03-31T15:29:16;99470.75;;;14.27;72.97
64336;BME280;50672;53.362;-6.240;2023-03-31T15:31:44;99480.00;;;14.14;73.15
64336;BME280;50672;53.362;-6.240;2023-03-31T15:34:21;99485.69;;;13.94;72.67
64336;BME280;50672;53.362;-6.240;2023-03-31T15:36:54;99484.19;;;13.79;73.02
64336;BME280;50672;53.362;-6.240;2023-03-31T15:39:23;99495.06;;;13.67;73.28
64336;BME280;50672;53.362;-6.240;2023-03-31T15:41:51;99496.41;;;13.58;73.53
64336;BME280;50672;53.362;-6.240;2023-03-31T15:47:23;99506.47;;;13.39;73.83
64336;BME280;50672;53.362;-6.240;2023-03-31T15:52:35;99506.34;;;13.27;74.13
64336;BME280;50672;53.362;-6.240;2023-03-31T15:57:56;99520.00;;;13.27;74.12
64336;BME280;50672;53.362;-6.240;2023-03-31T16:03:28;99524.44;;;13.28;74.69
64336;BME280;50672;53.362;-6.240;2023-03-31T16:06:14;99524.03;;;13.25;75.10
64336;BME280;50672;53.362;-6.240;2023-03-31T16:08:50;99530.16;;;13.20;75.03
64336;BME280;50672;53.362;-6.240;2023-03-31T16:11:23;99537.50;;;13.20;74.88
64336;BME280;50672;53.362;-6.240;2023-03-31T16:13:56;99536.06;;;13.17;75.24
64336;BME280;50672;53.362;-6.240;2023-03-31T16:16:26;99539.25;;;13.14;75.08
64336;BME280;50672;53.362;-6.240;2023-03-31T16:19:02;99541.75;;;13.15;75.13
64336;BME280;50672;53.362;-6.240;2023-03-31T16:21:40;99544.25;;;13.17;75.78
64336;BME280;50672;53.362;-6.240;2023-03-31T16:24:07;99555.00;;;13.19;75.43
64336;BME280;50672;53.362;-6.240;2023-03-31T16:26:35;99565.69;;;13.20;75.95
64336;BME280;50672;53.362;-6.240;2023-03-31T16:29:02;99564.59;;;13.21;75.53
64336;BME280;50672;53.362;-6.240;2023-03-31T16:31:38;99568.16;;;13.28;75.51